createdAt,value
2022-11-25T00:01:30.811Z,-1.10
2022-11-25T00:03:58.988Z,-1.10
2022-11-25T00:06:28.617Z,-1.00
2022-11-25T00:08:58.508Z,-0.90
2022-11-25T00:11:26.361Z,-1.00
2022-11-25T00:16:23.293Z,-1.10
2022-11-25T00:18:55.936Z,-1.10
2022-11-25T00:21:26.286Z,-1.10
2022-11-25T00:24:01.438Z,-1.10
2022-11-25T00:26:30.071Z,-1.00
2022-11-25T00:28:59.780Z,0.10
2022-11-25T00:31:29.912Z,-1.00
2022-11-25T00:33:57.380Z,-1.00
2022-11-25T00:36:35.916Z,-1.10
2022-11-25T00:39:10.040Z,-1.00
2022-11-25T00:41:55.514Z,-1.10
2022-11-25T00:44:41.651Z,-1.10
2022-11-25T00:47:20.376Z,-1.10
2022-11-25T00:49:53.478Z,-1.10
2022-11-25T00:52:25.725Z,0.00
2022-11-25T00:54:54.242Z,-1.10
2022-11-25T00:57:24.496Z,-1.10
2022-11-25T00:59:52.392Z,-0.80
2022-11-25T01:02:19.989Z,-1.10
2022-11-25T01:04:48.040Z,-1.50
2022-11-25T01:07:15.793Z,-1.10
2022-11-25T01:09:43.045Z,-1.40
2022-11-25T01:14:38.139Z,-1.10
2022-11-25T01:17:05.445Z,-1.10
2022-11-25T01:19:32.620Z,-1.10
2022-11-25T01:21:59.797Z,-1.20
2022-11-25T01:24:26.974Z,-1.10
2022-11-25T01:26:55.902Z,-1.10
2022-11-25T01:29:23.560Z,-1.10
2022-11-25T01:31:51.190Z,-1.10
2022-11-25T01:34:24.844Z,-1.00
2022-11-25T01:39:30.437Z,-0.90
2022-11-25T01:42:00.692Z,-1.00
2022-11-25T01:44:30.004Z,-1.20
2022-11-25T01:47:15.372Z,-1.00
2022-11-25T01:50:05.615Z,-0.80
2022-11-25T01:52:38.645Z,-1.00
2022-11-25T01:55:20.489Z,-0.60
2022-11-25T01:57:51.049Z,-1.30
2022-11-25T02:00:19.330Z,-0.80
2022-11-25T02:02:50.000Z,-1.60
2022-11-25T02:05:21.411Z,-0.60
2022-11-25T02:07:51.935Z,-1.10
2022-11-25T02:10:32.929Z,-1.00
2022-11-25T02:15:30.370Z,-1.00
2022-11-25T02:23:18.017Z,-1.10
2022-11-25T02:25:47.357Z,-1.00
2022-11-25T02:28:24.389Z,-1.00
2022-11-25T02:33:20.742Z,-1.00
2022-11-25T02:35:49.285Z,-1.00
2022-11-25T02:38:35.802Z,-1.00
2022-11-25T02:41:14.540Z,-0.90
2022-11-25T02:43:41.613Z,-1.20
2022-11-25T02:46:20.332Z,-0.50
2022-11-25T02:51:36.894Z,0.00
2022-11-25T02:54:04.201Z,-1.00
2022-11-25T02:56:33.972Z,-0.90
2022-11-25T02:59:01.792Z,-0.50
2022-11-25T03:01:30.106Z,1.00
2022-11-25T03:06:25.142Z,-0.50
2022-11-25T03:08:52.336Z,-1.00
2022-11-25T03:18:42.037Z,-1.70
2022-11-25T03:26:07.836Z,-1.10
2022-11-25T03:28:35.037Z,-1.10
2022-11-25T03:31:02.149Z,-0.70
2022-11-25T03:33:29.312Z,-1.00
2022-11-25T03:35:56.558Z,-1.00
2022-11-25T03:38:23.707Z,-1.00
2022-11-25T03:45:50.358Z,-0.90
2022-11-25T03:50:48.845Z,-1.30
2022-11-25T03:53:15.898Z,-0.90
2022-11-25T03:55:43.133Z,-1.10
2022-11-25T03:58:10.296Z,-1.10
2022-11-25T04:00:38.815Z,-1.10
2022-11-25T04:03:05.960Z,-1.10
2022-11-25T04:05:33.123Z,-1.10
2022-11-25T04:08:00.358Z,-1.20
2022-11-25T04:12:55.206Z,-1.10
2022-11-25T04:15:22.453Z,-1.20
2022-11-25T04:20:17.267Z,-1.20
2022-11-25T04:22:44.850Z,-1.10
2022-11-25T04:25:12.627Z,-1.20
2022-11-25T04:27:39.784Z,-1.10
2022-11-25T04:30:07.611Z,-1.20
2022-11-25T04:37:29.950Z,-1.20
2022-11-25T04:39:57.111Z,-1.10
2022-11-25T04:42:33.276Z,-1.10
2022-11-25T04:45:26.483Z,-1.30
2022-11-25T04:47:49.753Z,-0.50
2022-11-25T04:50:20.539Z,-1.20
2022-11-25T04:55:15.446Z,-1.30
2022-11-25T04:57:42.597Z,-0.90
2022-11-25T05:00:10.929Z,-1.20
2022-11-25T05:02:38.175Z,-0.70
2022-11-25T05:05:06.471Z,-1.20
2022-11-25T05:10:01.313Z,-1.30
2022-11-25T05:12:29.728Z,-1.30
2022-11-25T05:14:57.745Z,-1.20
2022-11-25T05:17:27.621Z,-1.30
2022-11-25T05:19:55.252Z,-1.50
2022-11-25T05:22:30.846Z,-1.20
2022-11-25T05:27:27.058Z,-1.30
2022-11-25T05:29:56.283Z,-1.30
2022-11-25T05:32:24.050Z,-1.20
2022-11-25T05:34:51.180Z,-1.60
2022-11-25T05:39:51.759Z,-1.30
2022-11-25T05:44:46.537Z,-1.30
2022-11-25T05:47:13.884Z,-1.50
2022-11-25T05:49:41.121Z,-1.20
2022-11-25T05:52:08.288Z,-1.20
2022-11-25T05:59:31.241Z,-1.20
2022-11-25T06:01:58.481Z,-0.80
2022-11-25T06:06:53.422Z,-1.00
2022-11-25T06:14:17.864Z,-1.20
2022-11-25T06:16:44.935Z,-0.30
2022-11-25T06:24:07.503Z,-1.20
2022-11-25T06:26:34.706Z,-1.20
2022-11-25T06:29:01.892Z,-1.20
2022-11-25T06:31:29.128Z,-2.40
2022-11-25T06:33:56.387Z,-1.20
2022-11-25T06:36:23.800Z,-1.40
2022-11-25T06:38:53.609Z,-1.20
2022-11-25T06:41:22.213Z,-1.20
2022-11-25T06:46:24.513Z,-1.10
2022-11-25T06:48:55.456Z,-1.30
2022-11-25T06:51:24.785Z,0.90
2022-11-25T06:53:52.546Z,-1.20
2022-11-25T06:56:22.926Z,-1.00
2022-11-25T06:58:50.686Z,-1.10
2022-11-25T07:01:27.463Z,-0.80
2022-11-25T07:04:00.412Z,-1.00
2022-11-25T07:11:25.948Z,-1.00
2022-11-25T07:13:58.940Z,-1.00
2022-11-25T07:16:26.850Z,-0.90
2022-11-25T07:18:54.772Z,-0.90
2022-11-25T07:21:24.577Z,-1.30
2022-11-25T07:23:52.916Z,-0.70
2022-11-25T07:26:26.099Z,-0.80
2022-11-25T07:28:55.533Z,-1.00
2022-11-25T07:31:28.731Z,-0.70
2022-11-25T07:34:08.233Z,-0.50
2022-11-25T07:36:36.701Z,-0.60
2022-11-25T07:39:07.438Z,-0.80
2022-11-25T07:41:35.037Z,-0.70
2022-11-25T07:44:04.968Z,-0.80
2022-11-25T07:46:37.995Z,-0.70
2022-11-25T07:49:12.041Z,-0.60
2022-11-25T07:51:44.531Z,-0.60
2022-11-25T07:54:13.100Z,-0.70
2022-11-25T07:56:42.991Z,-0.60
2022-11-25T07:59:13.751Z,-0.80
2022-11-25T08:01:41.632Z,-0.60
2022-11-25T08:04:13.811Z,-0.60
2022-11-25T08:06:47.417Z,-0.60
2022-11-25T08:09:19.494Z,-0.60
2022-11-25T08:11:48.352Z,-0.60
2022-11-25T08:14:16.408Z,-0.70
2022-11-25T08:19:14.223Z,-0.60
2022-11-25T08:24:15.758Z,-0.60
2022-11-25T08:26:43.091Z,-0.60
2022-11-25T08:29:14.262Z,-0.60
2022-11-25T08:34:16.348Z,-0.70
2022-11-25T08:39:44.054Z,-0.50
2022-11-25T08:42:05.816Z,-0.40
2022-11-25T08:44:32.997Z,-0.40
2022-11-25T08:47:00.216Z,-0.30
2022-11-25T08:49:29.419Z,0.20
2022-11-25T08:54:24.070Z,-0.10
2022-11-25T08:56:51.271Z,0.90
2022-11-25T09:01:46.000Z,-0.80
2022-11-25T09:04:13.257Z,-0.10
2022-11-25T09:06:40.673Z,-0.20
2022-11-25T09:09:07.963Z,-0.10
2022-11-25T09:11:35.835Z,0.00
2022-11-25T09:16:30.915Z,0.10
2022-11-25T09:19:00.210Z,0.10
2022-11-25T09:21:27.575Z,0.00
2022-11-25T09:23:55.031Z,0.20
2022-11-25T09:26:30.880Z,0.20
2022-11-25T09:28:58.679Z,1.20
2022-11-25T09:33:53.730Z,0.00
2022-11-25T09:36:21.802Z,0.20
2022-11-25T09:38:49.270Z,1.70
2022-11-25T09:42:05.066Z,0.40
2022-11-25T09:45:21.728Z,0.50
2022-11-25T09:48:11.657Z,0.30
2022-11-25T09:50:50.722Z,0.40
2022-11-25T09:53:53.381Z,0.50
2022-11-25T09:56:38.566Z,0.70
2022-11-25T10:01:40.783Z,0.90
2022-11-25T10:04:18.063Z,0.60
2022-11-25T10:06:57.209Z,0.60
2022-11-25T10:09:34.325Z,0.70
2022-11-25T10:14:31.953Z,0.90
2022-11-25T10:17:10.864Z,1.00
2022-11-25T10:19:51.109Z,1.00
2022-11-25T10:22:31.339Z,1.00
2022-11-25T10:25:07.293Z,1.10
2022-11-25T10:27:49.271Z,1.00
2022-11-25T10:30:18.574Z,1.20
2022-11-25T10:33:02.759Z,1.20
2022-11-25T10:35:40.559Z,1.40
2022-11-25T10:38:18.788Z,1.80
2022-11-25T10:40:50.298Z,1.40
2022-11-25T10:43:17.593Z,2.00
2022-11-25T10:46:11.844Z,2.30
2022-11-25T10:48:44.776Z,2.60
2022-11-25T10:51:43.625Z,2.60
2022-11-25T10:54:27.849Z,2.70
2022-11-25T10:57:18.946Z,2.50
2022-11-25T10:59:57.123Z,2.40
2022-11-25T11:02:38.896Z,2.40
2022-11-25T11:05:08.748Z,2.20
2022-11-25T11:07:42.644Z,2.00
2022-11-25T11:10:09.767Z,2.10
2022-11-25T11:12:37.029Z,2.10
2022-11-25T11:15:22.303Z,2.20
2022-11-25T11:17:49.613Z,2.10
2022-11-25T11:20:29.084Z,2.00
2022-11-25T11:23:12.712Z,1.70
2022-11-25T11:25:42.698Z,1.70
2022-11-25T11:28:35.148Z,1.60
2022-11-25T11:31:25.795Z,1.60
2022-11-25T11:34:11.790Z,1.50
2022-11-25T11:36:52.714Z,1.50
2022-11-25T11:39:47.704Z,1.10
2022-11-25T11:42:35.428Z,1.40
2022-11-25T11:45:31.194Z,1.20
2022-11-25T11:48:34.154Z,1.00
2022-11-25T11:51:25.499Z,1.00
2022-11-25T11:54:06.296Z,0.80
2022-11-25T11:56:50.630Z,1.40
2022-11-25T11:59:46.926Z,0.90
2022-11-25T12:02:40.735Z,0.90
2022-11-25T12:05:10.827Z,0.80
2022-11-25T12:08:09.724Z,0.70
2022-11-25T12:10:46.545Z,0.60
2022-11-25T12:13:30.816Z,0.50
2022-11-25T12:16:16.596Z,0.40
2022-11-25T12:21:43.375Z,0.40
2022-11-25T12:24:30.353Z,0.40
2022-11-25T12:27:22.822Z,0.30
2022-11-25T12:30:15.174Z,0.40
2022-11-25T12:32:45.445Z,0.10
2022-11-25T12:35:34.075Z,0.30
2022-11-25T12:38:42.038Z,0.20
2022-11-25T12:41:49.515Z,0.50
2022-11-25T12:44:31.774Z,0.20
2022-11-25T12:46:59.382Z,-0.10
2022-11-25T12:49:27.806Z,0.00
2022-11-25T12:52:19.265Z,-0.10
2022-11-25T12:55:03.439Z,-0.60
2022-11-25T12:57:49.504Z,-0.30
2022-11-25T13:00:43.245Z,-0.20
2022-11-25T13:03:35.027Z,-0.40
2022-11-25T13:06:20.823Z,-0.30
2022-11-25T13:09:07.664Z,-1.00
2022-11-25T13:12:13.175Z,-0.30
2022-11-25T13:15:05.793Z,-0.40
2022-11-25T13:17:40.276Z,-0.40
2022-11-25T13:20:42.688Z,-0.40
2022-11-25T13:23:47.492Z,-0.30
2022-11-25T13:26:34.877Z,-0.40
2022-11-25T13:29:09.477Z,-0.70
2022-11-25T13:32:02.652Z,0.50
2022-11-25T13:34:35.709Z,-0.40
2022-11-25T13:37:36.607Z,-0.30
2022-11-25T13:40:37.661Z,0.50
2022-11-25T13:43:06.069Z,-0.30
2022-11-25T13:45:43.855Z,-0.40
2022-11-25T13:48:32.312Z,-0.40
2022-11-25T13:51:27.257Z,-0.40
2022-11-25T13:54:01.951Z,-0.50
2022-11-25T13:56:37.353Z,-0.30
2022-11-25T13:59:14.160Z,-1.10
2022-11-25T14:01:53.911Z,-0.50
2022-11-25T14:04:41.881Z,-0.50
2022-11-25T14:07:34.878Z,-0.50
2022-11-25T14:10:21.947Z,-0.60
2022-11-25T14:13:06.568Z,-0.40
2022-11-25T14:18:42.948Z,-0.70
2022-11-25T14:21:41.849Z,-0.80
2022-11-25T14:24:17.706Z,-0.70
2022-11-25T14:26:50.423Z,-0.80
2022-11-25T14:29:33.074Z,-0.70
2022-11-25T14:32:15.792Z,-0.70
2022-11-25T14:34:51.945Z,-0.70
2022-11-25T14:37:23.182Z,-0.80
2022-11-25T14:39:59.052Z,-1.40
2022-11-25T14:42:33.489Z,-0.70
2022-11-25T14:45:00.996Z,-1.00
2022-11-25T14:47:39.101Z,-0.80
2022-11-25T14:53:06.810Z,-0.80
2022-11-25T15:00:29.389Z,-0.60
2022-11-25T15:02:59.683Z,-0.80
2022-11-25T15:05:33.363Z,-0.90
2022-11-25T15:08:18.466Z,-0.90
2022-11-25T15:10:55.938Z,-1.60
2022-11-25T15:13:44.235Z,-0.70
2022-11-25T15:16:21.213Z,-0.80
2022-11-25T15:18:57.447Z,-0.90
2022-11-25T15:21:31.720Z,-0.90
2022-11-25T15:26:30.126Z,-1.00
2022-11-25T15:29:00.462Z,-0.90
2022-11-25T15:31:39.181Z,-1.00
2022-11-25T15:34:10.759Z,-1.10
2022-11-25T15:36:38.261Z,-1.20
2022-11-25T15:39:21.075Z,-0.80
2022-11-25T15:41:55.044Z,-1.00
2022-11-25T15:44:28.744Z,-1.40
2022-11-25T15:47:05.286Z,-1.00
2022-11-25T15:49:36.243Z,-1.20
2022-11-25T15:52:15.602Z,-1.00
2022-11-25T15:54:46.263Z,-1.10
2022-11-25T15:57:23.440Z,-1.10
2022-11-25T15:59:55.510Z,-1.10
2022-11-25T16:02:36.839Z,0.90
2022-11-25T16:05:13.194Z,-1.30
2022-11-25T16:08:01.841Z,-1.70
2022-11-25T16:10:55.057Z,-1.00
2022-11-25T16:13:29.286Z,-0.20
2022-11-25T16:16:11.979Z,-1.10
2022-11-25T16:19:00.904Z,-1.00
2022-11-25T16:21:43.007Z,-1.00
2022-11-25T16:24:35.310Z,-1.20
2022-11-25T16:27:07.991Z,-1.30
2022-11-25T16:32:14.907Z,-1.10
2022-11-25T16:39:39.119Z,-1.50
2022-11-25T16:42:07.500Z,-1.10
2022-11-25T16:44:36.428Z,-1.20
2022-11-25T16:49:32.300Z,-1.20
2022-11-25T16:51:59.566Z,-1.20
2022-11-25T16:54:26.856Z,-1.10
2022-11-25T16:56:55.741Z,-2.40
2022-11-25T16:59:36.809Z,-1.30
2022-11-25T17:02:10.359Z,-0.90
2022-11-25T17:04:37.894Z,-1.20
2022-11-25T17:07:31.689Z,-1.10
2022-11-25T17:09:58.460Z,-1.20
2022-11-25T17:12:30.748Z,-1.30
2022-11-25T17:15:00.483Z,-1.50
2022-11-25T17:17:28.835Z,-1.20
2022-11-25T17:19:56.288Z,-1.30
2022-11-25T17:22:33.354Z,-1.20
2022-11-25T17:27:32.848Z,-1.30
2022-11-25T17:30:04.272Z,-1.10
2022-11-25T17:32:33.637Z,0.20
2022-11-25T17:35:01.106Z,-1.30
2022-11-25T17:37:31.253Z,-1.40
2022-11-25T17:39:58.533Z,-1.20
2022-11-25T17:42:31.836Z,-1.50
2022-11-25T17:45:00.212Z,0.70
2022-11-25T17:47:27.502Z,-1.50
2022-11-25T17:49:54.978Z,-1.50
2022-11-25T17:52:22.451Z,-1.30
2022-11-25T17:57:21.845Z,-3.00
2022-11-25T17:59:49.883Z,-1.10
2022-11-25T18:02:22.634Z,-1.60
2022-11-25T18:04:50.573Z,-1.10
2022-11-25T18:07:18.678Z,-1.40
2022-11-25T18:09:46.042Z,-1.50
2022-11-25T18:12:34.283Z,-1.50
2022-11-25T18:15:07.884Z,0.00
2022-11-25T18:17:36.947Z,-0.50
2022-11-25T18:20:25.025Z,-1.40
2022-11-25T18:22:53.516Z,-2.70
2022-11-25T18:25:26.707Z,-1.90
2022-11-25T18:27:56.594Z,-1.50
2022-11-25T18:30:28.395Z,-1.10
2022-11-25T18:35:31.115Z,-1.40
2022-11-25T18:38:02.439Z,-1.70
2022-11-25T18:43:00.837Z,-1.60
2022-11-25T18:45:36.816Z,-2.40
2022-11-25T18:48:14.937Z,-1.50
2022-11-25T18:50:42.802Z,-1.10
2022-11-25T18:58:16.563Z,-1.60
2022-11-25T19:00:44.926Z,-1.60
2022-11-25T19:03:26.660Z,-1.60
2022-11-25T19:06:01.826Z,-1.50
2022-11-25T19:08:29.913Z,-1.60
2022-11-25T19:10:57.461Z,-1.50
2022-11-25T19:13:33.212Z,-1.50
2022-11-25T19:16:07.388Z,-1.30
2022-11-25T19:18:35.324Z,-1.60
2022-11-25T19:21:02.582Z,-1.60
2022-11-25T19:26:06.570Z,-1.50
2022-11-25T19:28:34.713Z,-1.50
2022-11-25T19:31:04.786Z,-1.30
2022-11-25T19:33:36.083Z,-1.50
2022-11-25T19:36:03.933Z,-1.40
2022-11-25T19:38:32.979Z,-2.50
2022-11-25T19:41:00.366Z,-2.40
2022-11-25T19:43:27.685Z,-1.40
2022-11-25T19:45:58.462Z,-1.80
2022-11-25T19:51:05.131Z,-1.60
2022-11-25T19:53:34.304Z,-1.70
2022-11-25T19:58:32.450Z,-2.20
2022-11-25T20:01:04.253Z,-1.70
2022-11-25T20:03:32.088Z,-1.80
2022-11-25T20:05:59.691Z,-1.70
2022-11-25T20:08:29.115Z,-0.60
2022-11-25T20:10:57.657Z,-1.60
2022-11-25T20:13:26.406Z,-1.70
2022-11-25T20:15:55.463Z,-1.60
2022-11-25T20:18:26.611Z,-2.90
2022-11-25T20:21:02.949Z,-1.60
2022-11-25T20:23:43.704Z,-1.70
2022-11-25T20:26:35.747Z,-1.60
2022-11-25T20:29:10.842Z,-1.80
2022-11-25T20:31:38.133Z,-1.60
2022-11-25T20:34:05.395Z,-1.60
2022-11-25T20:36:33.571Z,-1.40
2022-11-25T20:39:03.226Z,-0.40
2022-11-25T20:41:32.162Z,-1.70
2022-11-25T20:44:00.551Z,-1.80
2022-11-25T20:46:30.348Z,-1.70
2022-11-25T20:49:00.761Z,-1.60
2022-11-25T20:51:29.139Z,-2.00
2022-11-25T20:54:01.187Z,-1.60
2022-11-25T20:56:29.562Z,-1.40
2022-11-25T20:58:57.179Z,-1.50
2022-11-25T21:01:25.370Z,-2.80
2022-11-25T21:03:52.619Z,-2.00
2022-11-25T21:06:21.397Z,-1.60
2022-11-25T21:08:51.743Z,-1.50
2022-11-25T21:11:20.424Z,-1.60
2022-11-25T21:13:48.394Z,-1.60
2022-11-25T21:16:15.980Z,-1.20
2022-11-25T21:18:43.663Z,-1.50
2022-11-25T21:21:26.467Z,-1.60
2022-11-25T21:23:53.980Z,-1.70
2022-11-25T21:26:25.623Z,-1.70
2022-11-25T21:28:54.311Z,-2.10
2022-11-25T21:31:23.791Z,-1.80
2022-11-25T21:33:56.482Z,-2.20
2022-11-25T21:36:28.356Z,-1.80
2022-11-25T21:39:08.779Z,-1.80
2022-11-25T21:41:36.602Z,-1.80
2022-11-25T21:44:06.591Z,-1.90
2022-11-25T21:46:34.424Z,-1.80
2022-11-25T21:51:29.366Z,-1.70
2022-11-25T21:53:56.639Z,-1.80
2022-11-25T21:56:30.264Z,-1.80
2022-11-25T21:58:59.841Z,-1.80
2022-11-25T22:01:27.986Z,-1.70
2022-11-25T22:03:57.180Z,-1.80
2022-11-25T22:06:27.639Z,-1.80
2022-11-25T22:08:55.444Z,-1.80
2022-11-25T22:11:37.060Z,-2.30
2022-11-25T22:14:08.526Z,-1.80
2022-11-25T22:16:37.188Z,-1.70
2022-11-25T22:19:04.870Z,-1.70
2022-11-25T22:21:32.340Z,-1.80
2022-11-25T22:23:59.823Z,-1.10
2022-11-25T22:26:34.785Z,-1.80
2022-11-25T22:29:02.624Z,-2.10
2022-11-25T22:31:30.057Z,-1.20
2022-11-25T22:33:57.411Z,-1.70
2022-11-25T22:36:32.796Z,-1.90
2022-11-25T22:39:09.731Z,-1.80
2022-11-25T22:44:04.562Z,-1.60
2022-11-25T22:46:36.094Z,-2.60
2022-11-25T22:49:03.777Z,-1.90
2022-11-25T22:53:59.888Z,-1.70
2022-11-25T22:56:28.409Z,-1.70
2022-11-25T22:59:00.293Z,-1.60
2022-11-25T23:01:27.589Z,-1.90
2022-11-25T23:03:54.948Z,-1.60
2022-11-25T23:06:22.407Z,-1.70
2022-11-25T23:08:49.504Z,-1.60
2022-11-25T23:11:20.529Z,-1.60
2022-11-25T23:16:18.305Z,-1.70
2022-11-25T23:18:46.905Z,-1.80
2022-11-25T23:21:21.618Z,-2.00
2022-11-25T23:23:49.241Z,-1.90
2022-11-25T23:26:17.219Z,-1.20
2022-11-25T23:31:14.441Z,-1.90
2022-11-25T23:33:47.909Z,-1.90
2022-11-25T23:36:22.031Z,-2.00
2022-11-25T23:38:58.426Z,-2.40
2022-11-25T23:41:28.430Z,-1.90
2022-11-25T23:43:56.303Z,-1.70
2022-11-25T23:46:29.449Z,-2.00
2022-11-25T23:48:59.744Z,-2.00
2022-11-25T23:51:28.701Z,-1.60
2022-11-25T23:53:57.250Z,-1.90
2022-11-25T23:56:27.136Z,-1.90
2022-11-25T23:58:54.232Z,-1.90
